• Join FlightAware (Why Join?)
  • Login
  • US Flag 
11:05AM EST


 

Airport Tracker/Info


-or-


 

Live Flight TrackerFlight Track Log ✈ N415JA ✈ 10-Feb-2014 ✈ KMDW - KPTK

Flight Track Log - Related Links

Times and Time Zones

All times are in EST time to prevent confusion due to time zone crossing. See the N415JA flight status page for this flight to view local times or setup timezone preferences in your user account.

Time Position Orientation Groundspeed Altitude Reporting Facility
EST Latitude Longitude Course Direction KTS MPH feet Rate Location/Type
09:27AM 41.8111 -87.7722 92° East 172 198 2,600  Level Chicago Center
09:28AM 41.8092 -87.6756 92° East 244 281 3,600 1,140 Climbing Chicago Center
09:29AM 41.7900 -87.5925 107° East 237 273 5,000 660 Climbing Chicago Center
09:30AM 41.7633 -87.5031 112° Southeast 247 284 5,000 960 Level Chicago Center
09:31AM 41.7592 -87.4061 93° East 266 306 7,000 3,000 Climbing Chicago Center
09:32AM 41.7606 -87.2919 89° East 299 344 11,300 3,840 Climbing Chicago Center
09:33AM 41.7606 -87.1683 90° East 325 374 15,000 2,460 Climbing Chicago Center
09:35AM 41.7808 -86.8325 85° East 431 496 19,000 1,260 Climbing Chicago Center
09:36AM 41.8028 -86.6864 79° East 444 511 19,000  Level Chicago Center
09:37AM 41.8253 -86.5247 79° East 441 507 19,000  Level Chicago Center
09:38AM 41.8483 -86.3642 79° East 438 504 19,000  Level Chicago Center
09:39AM 41.8711 -86.2014 79° East 443 510 19,000  Level Chicago Center
09:40AM 41.8983 -86.0025 80° East 450 518 19,000  Level Chicago Center
09:41AM 41.9217 -85.8369 79° East 450 518 19,000  Level Chicago Center
09:42AM 41.9444 -85.6714 79° East 449 517 19,000 -600 Level Chicago Center
09:43AM 41.9664 -85.5069 80° East 446 513 17,800 -960 Descending Chicago Center
09:44AM 41.9872 -85.3486 80° East 431 496 17,100 -360 Descending Chicago Center
09:45AM 42.0094 -85.1822 80° East 423 487 17,100  Level Chicago Center
09:46AM 42.0286 -85.0300 80° East 419 482 17,100 -420 Level Chicago Center
09:47AM 42.0472 -84.8803 80° East 413 475 16,300 -1,200 Descending Chicago Center
09:48AM 42.0567 -84.7333 85° East 399 459 14,700 -1,620 Descending Chicago Center
09:49AM 42.0364 -84.5883 101° East 395 455 13,000 -1,800 Descending Chicago Center
09:50AM 42.0122 -84.4239 101° East 380 437 11,000 -1,740 Descending Chicago Center
09:51AM 42.0022 -84.3578 101° East 341 392 10,100 -1,080 Descending Cleveland Center
09:51AM 41.9939 -84.3128 104° East 296 341 10,000 -240 Descending Cleveland Center
09:52AM 41.9872 -84.2519 98° East 297 342 9,900  Descending Cleveland Center
09:52AM 41.9786 -84.2006 103° East 299 344 10,000  Climbing Cleveland Center
09:53AM 41.9672 -84.1214 101° East 298 343 9,900 -420 Descending Cleveland Center
09:54AM 42.0153 -84.0425 51° Northeast 283 326 9,300 -840 Descending Cleveland Center
09:54AM 42.0400 -84.0186 36° Northeast 273 314 8,800 -1,380 Descending Cleveland Center
09:55AM 42.0772 -83.9844 34° Northeast 273 314 7,900 -1,500 Descending Cleveland Center
09:55AM 42.1017 -83.9606 36° Northeast 259 298 7,300 -1,380 Descending Cleveland Center
09:56AM 42.1344 -83.9300 35° Northeast 260 299 6,500 -1,440 Descending Cleveland Center
09:56AM 42.1564 -83.9067 38° Northeast 250 288 5,900 -1,200 Descending Cleveland Center
09:57AM 42.1897 -83.8767 34° Northeast 249 287 5,300 -900 Descending Cleveland Center
09:57AM 42.2131 -83.8558 33° Northeast 239 275 5,000 -420 Descending Cleveland Center
09:58AM 42.2447 -83.8289 32° Northeast 239 275 4,900 -360 Descending Cleveland Center
09:58AM 42.2628 -83.8125 34° Northeast 230 265 4,700 -600 Descending Cleveland Center
09:59AM 42.2983 -83.7789 35° Northeast 234 269 4,300 -600 Descending Cleveland Center
09:59AM 42.3172 -83.7614 34° Northeast 239 275 4,100 -300 Descending Cleveland Center
10:00AM 42.3697 -83.7097 36° Northeast 237 273 4,000 -60 Descending Cleveland Center
10:01AM 42.4258 -83.6614 32° Northeast 225 259 4,000 -60 Level Cleveland Center
10:02AM 42.4664 -83.6253 33° Northeast 222 255 3,900  Descending Cleveland Center
10:02AM 42.4756 -83.6178 31° Northeast 209 241 4,000 -660 Climbing Cleveland Center
10:03AM 42.5233 -83.5708 36° Northeast 208 239 3,200 -600 Descending Cleveland Center
10:04AM 42.5433 -83.5186 63° Northeast 209 241 2,900 -240 Descending Cleveland Center
10:04AM 42.5428 -83.5083 94° East 193 222 3,000  Climbing Cleveland Center
10:05AM 42.5483 -83.4461 83° East 199 229 2,900  Descending Cleveland Center
10:05AM 42.5489 -83.4328 87° East 194 223 3,000  Climbing Cleveland Center
10:06AM 42.5536 -83.3714 84° East 197 227 2,900  Descending Cleveland Center
10:07AM 42.5550 -83.3514 85° East 201 231 3,000 60 Climbing Cleveland Center
10:07AM 42.5617 -83.2967 81° East 198 228 3,000  Level Cleveland Center
10:08AM 42.5669 -83.2794 67° East 199 229 3,000  Level Cleveland Center
10:09AM 42.5814 -83.2019 76° East 196 226 3,000  Level Cleveland Center
10:10AM 42.6139 -83.1583 45° Northeast 175 201 3,000  Level Cleveland Center
10:11AM 42.6572 -83.1672 351° North 186 214 3,000 -120 Level Cleveland Center
10:11AM 42.6561 -83.1608 103° East 179 206 2,900 -420 Descending Cleveland Center
10:12AM 42.6700 -83.2203 288° West 151 174 2,600 -420 Descending Cleveland Center
10:12AM 42.6706 -83.2167 78° East 174 200 2,500  Descending Cleveland Center
10:13AM 42.6681 -83.2711 266° West 125 144 2,600  Climbing Cleveland Center
10:13AM 42.6689 -83.2672 74° East 153 176 2,500 -240 Descending Cleveland Center
10:14AM 42.6667 -83.3161 266° West 122 140 2,400 -120 Descending Cleveland Center
10:14AM 42.6672 -83.3128 77° East 136 157 2,400 -600 Level Cleveland Center
10:15AM 42.6656 -83.3586 267° West 113 130 1,800 -720 Descending Cleveland Center
10:15AM 42.6664 -83.3617 290° West 120 138 1,700 -540 Descending Cleveland Center
10:16AM 42.6647 -83.3958 266° West 115 132 1,200 -540 Descending Cleveland Center